Time,TemperatureF,DewpointF,PressureIn,WindDirection,WindDirectionDegrees,WindSpeedMPH,WindSpeedGustMPH,Humidity,HourlyPrecipIn,Conditions,Clouds,dailyrainin,SolarRadiationWatts/m^2,SoftwareType,DateUTC
2013-12-03 00:02:00,60.0,40.0,-100.00,West,271,0.0,2.0,48,0.00,,,0.00,0.000000,,2013-12-03 07:02:00,
2013-12-03 00:42:00,60.0,37.0,-100.00,SE,134,4.0,6.0,43,0.00,,,0.00,0.000000,,2013-12-03 07:42:00,
2013-12-03 00:52:00,60.0,37.0,-100.00,SE,134,4.0,6.0,43,0.00,,,0.00,0.000000,,2013-12-03 07:52:00,
2013-12-03 01:02:00,60.0,37.0,-100.00,SE,134,4.0,6.0,43,0.00,,,0.00,0.000000,,2013-12-03 08:02:00,
2013-12-03 01:42:00,59.0,38.0,-100.00,SE,134,3.0,5.0,45,0.00,,,0.00,0.000000,,2013-12-03 08:42:00,
2013-12-03 01:53:00,59.0,38.0,-100.00,SE,134,3.0,5.0,45,0.00,,,0.00,0.000000,,2013-12-03 08:53:00,
2013-12-03 02:01:00,59.0,38.0,-100.00,SE,134,3.0,5.0,45,0.00,,,0.00,0.000000,,2013-12-03 09:01:00,
2013-12-03 02:43:00,59.0,40.0,-100.00,SE,132,4.0,6.0,49,0.00,,,0.00,0.000000,,2013-12-03 09:43:00,
2013-12-03 02:54:00,59.0,40.0,-100.00,SE,132,4.0,6.0,49,0.00,,,0.00,0.000000,,2013-12-03 09:54:00,
2013-12-03 03:02:00,59.0,40.0,-100.00,SE,132,4.0,6.0,49,0.00,,,0.00,0.000000,,2013-12-03 10:02:00,
2013-12-03 03:42:00,57.0,39.0,-100.00,ESE,115,2.0,6.0,51,0.00,,,0.00,0.000000,,2013-12-03 10:42:00,
2013-12-03 03:53:00,57.0,39.0,-100.00,ESE,115,2.0,6.0,51,0.00,,,0.00,0.000000,,2013-12-03 10:53:00,
2013-12-03 04:03:00,57.0,39.0,-100.00,ESE,115,2.0,6.0,51,0.00,,,0.00,0.000000,,2013-12-03 11:03:00,
2013-12-03 04:42:00,55.0,41.0,-100.00,SW,221,0.0,4.0,58,0.00,,,0.00,0.000000,,2013-12-03 11:42:00,
2013-12-03 04:52:00,55.0,41.0,-100.00,SW,221,0.0,4.0,58,0.00,,,0.00,0.000000,,2013-12-03 11:52:00,
2013-12-03 05:02:00,55.0,41.0,-100.00,SW,221,0.0,4.0,58,0.00,,,0.00,0.000000,,2013-12-03 12:02:00,
2013-12-03 05:42:00,54.0,39.0,-100.00,SE,141,0.0,3.0,56,0.00,,,0.00,0.000000,,2013-12-03 12:42:00,
2013-12-03 05:52:00,54.0,39.0,-100.00,SE,141,0.0,3.0,56,0.00,,,0.00,0.000000,,2013-12-03 12:52:00,
2013-12-03 06:02:00,54.0,39.0,-100.00,SE,141,0.0,3.0,56,0.00,,,0.00,0.000000,,2013-12-03 13:02:00,
2013-12-03 06:42:00,53.0,39.0,-100.00,NE,52,1.0,3.0,58,0.00,,,0.00,0.000000,,2013-12-03 13:42:00,
2013-12-03 06:52:00,53.0,39.0,-100.00,NE,52,1.0,3.0,58,0.00,,,0.00,0.000000,,2013-12-03 13:52:00,
2013-12-03 07:02:00,53.0,39.0,-100.00,NE,52,1.0,3.0,58,0.00,,,0.00,0.000000,,2013-12-03 14:02:00,
2013-12-03 07:42:00,54.0,41.0,-100.00,West,261,0.0,6.0,61,0.00,,,-99.99,0.000000,,2013-12-03 14:42:00,
2013-12-03 07:52:00,54.0,41.0,-100.00,West,261,0.0,6.0,61,0.00,,,-99.99,0.000000,,2013-12-03 14:52:00,
2013-12-03 08:02:00,54.0,41.0,-100.00,West,261,0.0,6.0,61,0.00,,,-99.99,0.000000,,2013-12-03 15:02:00,
2013-12-03 08:43:00,54.0,47.0,-100.00,ESE,120,5.0,7.0,77,0.00,,,0.00,0.000000,,2013-12-03 15:43:00,
2013-12-03 08:53:00,54.0,47.0,-100.00,ESE,120,5.0,7.0,77,0.00,,,0.00,0.000000,,2013-12-03 15:53:00,
2013-12-03 09:03:00,54.0,47.0,-100.00,ESE,120,5.0,7.0,77,0.00,,,0.00,0.000000,,2013-12-03 16:03:00,
2013-12-03 09:43:00,57.0,52.0,-100.00,ESE,114,4.0,6.0,83,0.00,,,0.00,39.000000,,2013-12-03 16:43:00,
2013-12-03 10:42:00,59.0,52.0,-100.00,SE,125,2.0,6.0,78,0.00,,,0.00,149.000000,,2013-12-03 17:42:00,
2013-12-03 10:53:00,59.0,52.0,-100.00,SE,125,2.0,6.0,78,0.00,,,0.00,149.000000,,2013-12-03 17:53:00,
2013-12-03 11:01:00,59.0,52.0,-100.00,SE,125,2.0,6.0,78,0.00,,,0.00,149.000000,,2013-12-03 18:01:00,
2013-12-03 11:42:00,62.0,54.0,-100.00,SE,130,8.0,13.0,75,0.00,,,0.00,390.000000,,2013-12-03 18:42:00,
2013-12-03 11:53:00,62.0,54.0,-100.00,SE,130,8.0,13.0,75,0.00,,,0.00,390.000000,,2013-12-03 18:53:00,
2013-12-03 12:02:00,62.0,54.0,-100.00,SE,130,8.0,13.0,75,0.00,,,0.00,390.000000,,2013-12-03 19:02:00,
2013-12-03 12:42:00,68.0,57.0,-100.00,SSE,157,10.0,14.0,69,0.00,,,0.00,681.000000,,2013-12-03 19:42:00,
2013-12-03 12:52:00,68.0,57.0,-100.00,SSE,157,10.0,14.0,69,0.00,,,0.00,681.000000,,2013-12-03 19:52:00,
2013-12-03 13:01:00,68.0,57.0,-100.00,SSE,157,10.0,14.0,69,0.00,,,0.00,681.000000,,2013-12-03 20:01:00,
2013-12-03 13:42:00,70.0,55.0,-100.00,SSE,161,8.0,14.0,58,0.00,,,0.00,709.000000,,2013-12-03 20:42:00,
2013-12-03 13:53:00,70.0,55.0,-100.00,SSE,161,8.0,14.0,58,0.00,,,0.00,709.000000,,2013-12-03 20:53:00,
2013-12-03 14:02:00,70.0,55.0,-100.00,SSE,161,8.0,14.0,58,0.00,,,0.00,709.000000,,2013-12-03 21:02:00,
2013-12-03 14:44:00,75.0,52.0,-100.00,South,179,9.0,13.0,44,0.00,,,0.00,775.000000,,2013-12-03 21:44:00,
2013-12-03 14:54:00,75.0,52.0,-100.00,South,179,9.0,13.0,44,0.00,,,0.00,775.000000,,2013-12-03 21:54:00,
2013-12-03 15:03:00,75.0,52.0,-100.00,South,179,9.0,13.0,44,0.00,,,0.00,775.000000,,2013-12-03 22:03:00,
2013-12-03 15:43:00,75.0,49.0,-100.00,South,171,9.0,15.0,40,0.00,,,0.00,804.000000,,2013-12-03 22:43:00,
2013-12-03 15:53:00,75.0,49.0,-100.00,South,171,9.0,15.0,40,0.00,,,0.00,804.000000,,2013-12-03 22:53:00,
2013-12-03 16:02:00,75.0,49.0,-100.00,South,171,9.0,15.0,40,0.00,,,0.00,804.000000,,2013-12-03 23:02:00,
2013-12-03 16:42:00,76.0,48.0,-100.00,SSE,167,9.0,14.0,37,0.00,,,0.00,676.000000,,2013-12-03 23:42:00,
2013-12-03 16:52:00,76.0,48.0,-100.00,SSE,167,9.0,14.0,37,0.00,,,0.00,676.000000,,2013-12-03 23:52:00,
2013-12-03 17:01:00,76.0,48.0,-100.00,SSE,167,9.0,14.0,37,0.00,,,0.00,676.000000,,2013-12-04 00:01:00,
2013-12-03 17:42:00,77.0,49.0,-100.00,SSE,166,10.0,16.0,38,0.00,,,0.00,354.000000,,2013-12-04 00:42:00,
2013-12-03 17:52:00,77.0,49.0,-100.00,SSE,166,10.0,16.0,38,0.00,,,0.00,354.000000,,2013-12-04 00:52:00,
2013-12-03 18:02:00,77.0,49.0,-100.00,SSE,166,10.0,16.0,38,0.00,,,0.00,354.000000,,2013-12-04 01:02:00,
2013-12-03 18:42:00,74.0,48.0,-100.00,South,183,5.0,14.0,40,0.00,,,0.00,178.000000,,2013-12-04 01:42:00,
2013-12-03 18:52:00,74.0,48.0,-100.00,South,183,5.0,14.0,40,0.00,,,0.00,178.000000,,2013-12-04 01:52:00,
2013-12-03 19:02:00,74.0,48.0,-100.00,South,183,5.0,14.0,40,0.00,,,0.00,178.000000,,2013-12-04 02:02:00,
2013-12-03 19:42:00,70.0,50.0,-100.00,South,178,4.0,6.0,50,0.00,,,0.00,10.000000,,2013-12-04 02:42:00,
2013-12-03 19:52:00,70.0,50.0,-100.00,South,178,4.0,6.0,50,0.00,,,0.00,10.000000,,2013-12-04 02:52:00,
2013-12-03 20:02:00,70.0,50.0,-100.00,South,178,4.0,6.0,50,0.00,,,0.00,10.000000,,2013-12-04 03:02:00,
2013-12-03 20:44:00,67.0,51.0,-100.00,SSW,202,3.0,6.0,56,0.00,,,0.00,0.000000,,2013-12-04 03:44:00,
2013-12-03 20:54:00,67.0,51.0,-100.00,SSW,202,3.0,6.0,56,0.00,,,0.00,0.000000,,2013-12-04 03:54:00,
2013-12-03 21:03:00,67.0,51.0,-100.00,SSW,202,3.0,6.0,56,0.00,,,0.00,0.000000,,2013-12-04 04:03:00,
2013-12-03 21:42:00,66.0,53.0,-100.00,SW,221,2.0,6.0,64,0.00,,,0.00,0.000000,,2013-12-04 04:42:00,
2013-12-03 21:52:00,66.0,53.0,-100.00,SW,221,2.0,6.0,64,0.00,,,0.00,0.000000,,2013-12-04 04:52:00,
2013-12-03 22:02:00,66.0,53.0,-100.00,SW,221,2.0,6.0,64,0.00,,,0.00,0.000000,,2013-12-04 05:02:00,
2013-12-03 22:53:00,63.0,43.0,-100.00,WNW,295,9.0,14.0,48,0.00,,,0.00,0.000000,,2013-12-04 05:53:00,
2013-12-03 23:02:00,63.0,43.0,-100.00,WNW,295,9.0,14.0,48,0.00,,,0.00,0.000000,,2013-12-04 06:02:00,
2013-12-03 23:42:00,62.0,46.0,-100.00,NW,315,9.0,16.0,56,0.00,,,0.00,0.000000,,2013-12-04 06:42:00,
2013-12-03 23:52:00,62.0,46.0,-100.00,NW,315,9.0,16.0,56,0.00,,,0.00,0.000000,,2013-12-04 06:52:00,